Time;durP1;ratioP1;P1;durP2;ratioP2;P2;SDS_P1;SDS_P2;PMS_P1;PMS_P2;Temp;Humidity;BMP_temperature;BMP_pressure;BME280_temperature;BME280_humidity;BME280_pressure;Samples;Min_cycle;Max_cycle;Signal;HPM_P1;HPM_P2
2023/03/14 00:01:52;;;;;;;6.25;3.40;;;6.70;1.00;;;;;;5139773;28;20046;-71
2023/03/14 00:04:25;;;;;;;9.90;3.72;;;6.60;1.00;;;;;;5161102;28;20234;-70
2023/03/14 00:06:58;;;;;;;7.35;3.92;;;6.60;1.00;;;;;;5140547;28;20046;-69
2023/03/14 00:09:35;;;;;;;8.55;3.72;;;6.70;1.00;;;;;;5137119;28;20060;-69
2023/03/14 00:12:07;;;;;;;5.88;3.80;;;6.70;1.00;;;;;;5135905;28;20046;-70
2023/03/14 00:14:42;;;;;;;5.70;3.47;;;6.60;1.00;;;;;;5137529;28;20034;-70
2023/03/14 00:17:16;;;;;;;5.38;3.53;;;6.60;1.00;;;;;;5165536;28;20022;-69
2023/03/14 00:19:49;;;;;;;7.97;4.57;;;6.60;1.00;;;;;;5168720;28;20026;-70
2023/03/14 00:22:21;;;;;;;4.75;3.50;;;6.60;1.00;;;;;;5128685;28;20034;-69
2023/03/14 00:24:53;;;;;;;6.10;3.65;;;6.40;1.00;;;;;;5154132;28;20034;-75
2023/03/14 00:27:27;;;;;;;6.68;3.80;;;6.30;1.00;;;;;;5137700;28;20054;-69
2023/03/14 00:30:00;;;;;;;4.22;3.35;;;6.10;1.00;;;;;;5171923;28;20077;-68
2023/03/14 00:32:31;;;;;;;4.70;3.42;;;6.00;1.00;;;;;;5161256;28;20034;-68
2023/03/14 00:35:06;;;;;;;5.88;3.50;;;6.00;1.00;;;;;;5137269;28;20427;-69
2023/03/14 00:37:40;;;;;;;5.68;3.40;;;5.80;1.00;;;;;;5144402;28;20384;-69
2023/03/14 00:40:12;;;;;;;8.65;4.45;;;5.90;1.00;;;;;;5143298;28;20056;-71
2023/03/14 00:42:43;;;;;;;7.20;4.07;;;5.90;1.00;;;;;;5159054;28;20048;-68
2023/03/14 00:45:15;;;;;;;7.15;3.08;;;5.80;1.00;;;;;;5140820;28;20044;-71
2023/03/14 00:47:49;;;;;;;6.35;3.38;;;5.70;1.00;;;;;;5142727;28;20428;-71
2023/03/14 00:50:25;;;;;;;4.68;2.90;;;5.70;1.00;;;;;;5159562;28;20491;-69
2023/03/14 00:52:58;;;;;;;8.57;3.50;;;5.60;1.00;;;;;;5166644;28;20053;-70
2023/03/14 00:55:30;;;;;;;7.10;3.63;;;5.60;1.00;;;;;;5162399;28;20030;-70
2023/03/14 00:58:01;;;;;;;5.57;3.30;;;5.50;1.00;;;;;;5168039;28;20068;-70
2023/03/14 01:00:36;;;;;;;6.05;3.83;;;5.50;8.40;;;;;;5168542;28;20057;-70
2023/03/14 01:03:12;;;;;;;;;;;5.40;5.20;;;;;;5167115;23;20054;-70
2023/03/14 01:05:46;;;;;;;6.80;3.50;;;5.40;20.90;;;;;;5092379;28;19965;-68
2023/03/14 01:08:17;;;;;;;5.63;3.47;;;5.40;29.30;;;;;;5118475;28;20031;-71
2023/03/14 01:10:57;;;;;;;4.43;3.13;;;5.30;46.10;;;;;;5138044;28;20714;-68
2023/03/14 01:13:30;;;;;;;3.92;2.80;;;5.30;94.60;;;;;;5121996;28;20050;-71
2023/03/14 01:16:10;;;;;;;5.38;3.28;;;5.30;66.00;;;;;;5088347;28;20054;-72
2023/03/14 01:18:44;;;;;;;5.82;3.42;;;5.30;99.90;;;;;;5124076;28;20570;-68
2023/03/14 01:21:26;;;;;;;6.50;3.50;;;5.40;99.90;;;;;;5136466;28;20044;-69
2023/03/14 01:24:03;;;;;;;7.30;3.13;;;5.40;95.00;;;;;;5105092;28;20243;-71
2023/03/14 01:26:37;;;;;;;5.15;3.25;;;5.40;87.00;;;;;;5123844;28;20037;-69
2023/03/14 01:29:08;;;;;;;6.97;3.25;;;5.40;86.80;;;;;;5120168;28;20042;-70
2023/03/14 01:31:42;;;;;;;5.90;3.13;;;5.40;98.80;;;;;;5135636;28;20050;-70
2023/03/14 01:34:14;;;;;;;6.70;3.60;;;5.40;99.90;;;;;;5101500;28;20045;-71
2023/03/14 01:36:47;;;;;;;5.57;3.00;;;5.40;99.90;;;;;;5107749;28;20339;-72
2023/03/14 01:39:18;;;;;;;4.82;3.20;;;5.40;99.90;;;;;;5119833;28;20041;-71
2023/03/14 01:41:51;;;;;;;4.35;2.95;;;5.40;99.90;;;;;;5119716;28;20051;-72
2023/03/14 01:44:46;;;;;;;6.63;3.55;;;5.40;99.90;;;;;;5151020;28;20057;-70
2023/03/14 01:47:21;;;;;;;4.55;2.95;;;5.40;99.90;;;;;;5132699;28;20061;-71
2023/03/14 01:50:10;;;;;;;6.00;3.05;;;5.40;99.90;;;;;;5134574;28;20247;-70
2023/03/14 01:52:48;;;;;;;6.13;3.95;;;5.40;99.90;;;;;;5134906;28;20585;-69
2023/03/14 01:55:25;;;;;;;6.15;3.20;;;5.30;99.90;;;;;;5133535;28;20207;-70
2023/03/14 01:58:07;;;;;;;10.25;3.42;;;5.30;99.90;;;;;;5134552;28;20050;-70
2023/03/14 02:00:40;;;;;;;5.97;3.15;;;5.40;99.90;;;;;;5131035;28;20038;-71
2023/03/14 02:03:22;;;;;;;4.47;3.28;;;5.30;99.90;;;;;;5129053;28;20039;-69
2023/03/14 02:05:59;;;;;;;8.85;3.20;;;5.30;99.90;;;;;;5113233;28;20260;-69
2023/03/14 02:08:31;;;;;;;5.15;3.17;;;5.30;99.90;;;;;;5119056;28;20053;-72
2023/03/14 02:11:03;;;;;;;4.82;2.97;;;5.20;99.90;;;;;;5106576;28;20035;-71
2023/03/14 02:13:35;;;;;;;6.88;3.75;;;5.20;99.90;;;;;;5101094;28;20057;-71
2023/03/14 02:16:07;;;;;;;4.93;3.08;;;5.20;99.90;;;;;;5115529;28;20056;-70
2023/03/14 02:18:49;;;;;;;5.35;3.20;;;5.20;99.90;;;;;;5117096;28;20064;-73
2023/03/14 02:21:24;;;;;;;4.55;3.10;;;5.20;99.90;;;;;;5118764;28;20051;-70
2023/03/14 02:24:33;;;;;;;5.78;3.40;;;5.20;99.90;;;;;;5133943;28;20042;-69
2023/03/14 02:27:11;;;;;;;4.53;3.55;;;5.20;99.90;;;;;;5116814;28;20034;-71
2023/03/14 02:30:04;;;;;;;8.27;2.97;;;5.20;99.90;;;;;;5132641;28;20065;-70
2023/03/14 02:32:40;;;;;;;7.22;3.17;;;5.20;99.90;;;;;;5131835;28;20043;-71
2023/03/14 02:35:21;;;;;;;4.40;3.10;;;5.20;99.90;;;;;;5101517;28;20047;-68
2023/03/14 02:38:20;;;;;;;4.95;2.78;;;5.20;99.90;;;;;;5117298;28;20057;-71
2023/03/14 02:40:52;;;;;;;3.55;3.10;;;5.30;99.90;;;;;;5105476;28;20046;-69
2023/03/14 02:43:23;;;;;;;6.70;3.03;;;5.40;99.90;;;;;;5133242;28;20023;-70
2023/03/14 02:46:03;;;;;;;5.60;3.25;;;5.40;93.60;;;;;;5124793;28;20081;-70
2023/03/14 02:48:53;;;;;;;6.13;3.35;;;5.40;99.90;;;;;;5100085;28;20058;-70
2023/03/14 02:51:35;;;;;;;4.22;2.53;;;5.30;99.90;;;;;;5135059;28;20043;-68
2023/03/14 02:54:07;;;;;;;3.88;2.80;;;5.20;98.00;;;;;;5117841;28;20554;-69
2023/03/14 02:56:38;;;;;;;7.22;2.70;;;5.30;79.90;;;;;;5129752;28;20053;-69
2023/03/14 02:59:10;;;;;;;4.88;3.28;;;5.10;95.40;;;;;;5099853;28;20054;-71
2023/03/14 03:02:00;;;;;;;3.28;2.55;;;5.00;99.90;;;;;;5103674;28;20047;-71
2023/03/14 03:04:34;;;;;;;7.35;3.58;;;5.00;99.90;;;;;;5117056;28;20101;-70
2023/03/14 03:07:09;;;;;;;3.67;2.35;;;5.20;99.90;;;;;;5099145;28;20057;-71
2023/03/14 03:09:40;;;;;;;6.45;2.75;;;5.20;99.90;;;;;;5102757;29;20045;-68
2023/03/14 03:12:15;;;;;;;6.55;2.80;;;5.20;99.90;;;;;;5115214;28;20041;-70
2023/03/14 03:14:46;;;;;;;6.60;2.90;;;5.20;99.90;;;;;;5118209;28;20440;-69
2023/03/14 03:17:18;;;;;;;3.83;2.80;;;5.30;99.90;;;;;;5113934;28;20054;-71
2023/03/14 03:19:55;;;;;;;6.82;2.90;;;5.40;99.90;;;;;;5132235;28;20729;-69
2023/03/14 03:22:26;;;;;;;3.05;2.65;;;5.40;94.90;;;;;;5119303;28;20042;-69
2023/03/14 03:25:02;;;;;;;4.50;3.60;;;5.60;68.00;;;;;;5133166;28;20258;-70
2023/03/14 03:27:36;;;;;;;6.35;2.20;;;5.70;18.80;;;;;;5132336;28;20053;-71
2023/03/14 03:30:13;;;;;;;4.65;2.85;;;5.80;1.00;;;;;;5131241;28;20052;-71
2023/03/14 03:32:46;;;;;;;5.53;3.10;;;5.80;1.00;;;;;;5117408;28;20076;-70
2023/03/14 03:35:23;;;;;;;5.60;2.92;;;5.70;1.00;;;;;;5101434;28;20266;-70
2023/03/14 03:37:54;;;;;;;4.22;3.42;;;5.90;1.00;;;;;;5133160;28;20049;-70
2023/03/14 03:40:29;;;;;;;5.15;3.35;;;6.00;1.00;;;;;;5117972;28;20030;-70
2023/03/14 03:43:03;;;;;;;5.82;3.25;;;6.00;1.00;;;;;;5116194;28;20648;-71
2023/03/14 03:45:35;;;;;;;7.03;2.67;;;6.10;1.00;;;;;;5132583;28;20592;-71
2023/03/14 03:48:10;;;;;;;4.03;2.95;;;6.10;1.00;;;;;;5132117;28;20077;-69
2023/03/14 03:50:47;;;;;;;5.03;3.05;;;6.10;1.00;;;;;;5116990;28;20052;-70
2023/03/14 03:53:21;;;;;;;4.65;3.22;;;6.10;1.00;;;;;;5115499;28;20058;-71
2023/03/14 03:55:54;;;;;;;4.60;3.33;;;6.00;1.00;;;;;;5116107;28;20039;-70
2023/03/14 03:58:30;;;;;;;4.97;2.92;;;5.90;1.00;;;;;;5132433;28;20035;-69
2023/03/14 04:01:02;;;;;;;3.22;2.92;;;5.80;1.00;;;;;;5123363;28;20054;-71
2023/03/14 04:03:33;;;;;;;6.60;3.15;;;5.80;1.00;;;;;;5117764;28;20043;-69
2023/03/14 04:06:13;;;;;;;7.68;3.40;;;5.80;1.00;;;;;;5114285;28;20062;-72
2023/03/14 04:08:48;;;;;;;6.22;3.58;;;5.90;1.00;;;;;;5102334;28;20030;-69
2023/03/14 04:11:22;;;;;;;3.83;2.90;;;5.90;1.00;;;;;;5099066;29;20065;-70
2023/03/14 04:13:56;;;;;;;5.28;3.47;;;6.00;1.00;;;;;;5119480;28;20050;-70
2023/03/14 04:16:29;;;;;;;4.60;3.40;;;6.20;1.00;;;;;;5101618;28;20046;-71
2023/03/14 04:19:02;;;;;;;4.93;3.80;;;6.20;1.00;;;;;;5122179;28;20611;-70
2023/03/14 04:21:40;;;;;;;4.35;3.22;;;6.30;1.00;;;;;;5135532;28;20489;-71
2023/03/14 04:24:13;;;;;;;5.97;3.35;;;6.20;1.00;;;;;;5120963;28;20186;-70
2023/03/14 04:26:47;;;;;;;7.20;3.35;;;6.10;1.00;;;;;;5101438;28;20658;-70
2023/03/14 04:29:23;;;;;;;5.03;3.65;;;6.10;1.00;;;;;;5117740;28;20050;-69
2023/03/14 04:31:57;;;;;;;4.32;3.10;;;6.00;1.00;;;;;;5116856;28;20114;-71
2023/03/14 04:34:31;;;;;;;4.85;3.45;;;6.00;1.00;;;;;;5105222;28;20043;-70
2023/03/14 04:37:08;;;;;;;3.47;3.17;;;6.20;1.00;;;;;;5115416;29;20047;-70
2023/03/14 04:39:39;;;;;;;7.32;3.40;;;6.30;1.00;;;;;;5096579;28;20050;-71
2023/03/14 04:42:13;;;;;;;5.05;2.70;;;6.70;1.00;;;;;;5119511;28;20220;-70
2023/03/14 04:44:49;;;;;;;6.80;2.92;;;7.30;1.00;;;;;;5102241;28;20055;-70
2023/03/14 04:47:20;;;;;;;3.95;2.70;;;7.90;1.00;;;;;;5133271;28;20076;-71
2023/03/14 04:49:53;;;;;;;3.58;2.58;;;8.30;1.00;;;;;;5134834;28;20035;-71
2023/03/14 04:52:30;;;;;;;8.20;3.40;;;8.40;1.00;;;;;;5119354;28;20491;-70
2023/03/14 04:55:06;;;;;;;5.80;3.00;;;8.40;1.00;;;;;;5134937;28;20043;-72
2023/03/14 04:57:38;;;;;;;4.15;2.85;;;8.10;1.00;;;;;;5100774;28;20039;-71
2023/03/14 05:00:10;;;;;;;4.32;2.80;;;7.90;1.00;;;;;;5132762;28;20042;-71
2023/03/14 05:02:41;;;;;;;6.32;3.13;;;7.70;1.00;;;;;;5100099;28;20052;-72
2023/03/14 05:05:14;;;;;;;4.60;2.83;;;7.70;1.00;;;;;;5121733;28;20058;-69
2023/03/14 05:07:46;;;;;;;3.70;2.53;;;7.60;1.00;;;;;;5135153;28;20046;-69
2023/03/14 05:10:17;;;;;;;4.60;2.92;;;7.60;1.00;;;;;;5118379;28;20053;-70
2023/03/14 05:12:49;;;;;;;4.55;2.42;;;7.70;1.00;;;;;;5120219;28;20046;-71
2023/03/14 05:15:20;;;;;;;4.88;2.75;;;7.80;1.00;;;;;;5098828;29;20047;-70
2023/03/14 05:17:54;;;;;;;4.13;2.72;;;7.90;1.00;;;;;;5117457;28;20051;-70
2023/03/14 05:20:28;;;;;;;2.90;2.53;;;8.00;1.00;;;;;;5117486;28;20045;-69
2023/03/14 05:23:04;;;;;;;4.57;3.08;;;8.20;1.00;;;;;;5118163;28;20048;-69
2023/03/14 05:25:38;;;;;;;4.60;2.72;;;8.20;1.00;;;;;;5100411;28;20750;-71
2023/03/14 05:28:16;;;;;;;4.30;3.17;;;8.20;1.00;;;;;;5097610;29;20055;-71
2023/03/14 05:30:51;;;;;;;4.55;2.70;;;8.10;1.00;;;;;;5096423;29;20031;-70
2023/03/14 05:33:22;;;;;;;3.05;2.30;;;8.00;1.00;;;;;;5080412;29;20050;-71
2023/03/14 05:35:54;;;;;;;4.05;3.08;;;8.00;1.00;;;;;;5106554;28;20050;-72
2023/03/14 05:38:30;;;;;;;3.88;3.05;;;7.90;1.00;;;;;;5118072;28;20049;-71
2023/03/14 05:41:03;;;;;;;6.47;3.13;;;7.90;1.00;;;;;;5118156;28;20046;-72
2023/03/14 05:43:35;;;;;;;7.15;3.03;;;7.70;1.00;;;;;;5135511;28;20284;-73
2023/03/14 05:46:06;;;;;;;6.20;3.15;;;7.70;1.00;;;;;;5112191;29;20047;-70
2023/03/14 05:48:38;;;;;;;4.82;3.10;;;7.60;1.00;;;;;;5115206;28;20047;-68
2023/03/14 05:51:12;;;;;;;14.75;7.82;;;7.60;1.00;;;;;;5110381;28;20048;-71
2023/03/14 05:53:46;;;;;;;12.27;5.63;;;7.50;1.00;;;;;;5133528;28;20038;-69
2023/03/14 05:56:17;;;;;;;;;;;7.50;1.00;;;;;;5113542;29;20039;-72
2023/03/14 05:58:53;;;;;;;4.90;3.88;;;7.50;1.00;;;;;;5097592;29;20414;-71
2023/03/14 06:01:25;;;;;;;5.32;3.10;;;7.60;1.00;;;;;;5116844;28;20047;-72
2023/03/14 06:03:56;;;;;;;5.55;3.00;;;7.60;1.00;;;;;;5128101;28;20158;-71
2023/03/14 06:06:28;;;;;;;5.80;3.13;;;7.70;1.00;;;;;;5078184;28;20469;-70
2023/03/14 06:09:02;;;;;;;8.55;3.10;;;7.80;1.00;;;;;;5097997;29;20057;-69
2023/03/14 06:11:38;;;;;;;6.40;3.83;;;7.90;1.00;;;;;;5126539;28;20362;-71
2023/03/14 06:14:10;;;;;;;26.27;13.60;;;8.10;1.00;;;;;;5098740;28;20053;-72
2023/03/14 06:16:44;;;;;;;10.63;5.90;;;8.20;1.00;;;;;;5110911;29;20047;-71
2023/03/14 06:19:16;;;;;;;9.73;5.03;;;8.30;1.00;;;;;;5112855;28;20062;-72
2023/03/14 06:21:53;;;;;;;6.07;3.50;;;8.20;1.00;;;;;;5095986;29;20470;-73
2023/03/14 06:24:24;;;;;;;4.78;3.63;;;8.20;1.00;;;;;;5113137;29;20039;-68
2023/03/14 06:26:56;;;;;;;7.57;4.10;;;8.10;1.00;;;;;;5131242;28;20060;-72
2023/03/14 06:29:29;;;;;;;5.80;4.13;;;8.00;1.00;;;;;;5115759;28;20065;-68
2023/03/14 06:32:11;;;;;;;9.98;3.72;;;8.00;1.00;;;;;;5106997;28;20043;-69
2023/03/14 06:34:45;;;;;;;7.32;3.40;;;8.00;1.00;;;;;;5112851;29;20039;-71
2023/03/14 06:37:22;;;;;;;5.85;3.30;;;8.20;1.00;;;;;;5112769;29;20031;-70
2023/03/14 06:39:55;;;;;;;4.97;4.10;;;8.30;1.00;;;;;;5112499;28;20047;-72
2023/03/14 06:42:29;;;;;;;8.82;4.30;;;8.40;1.00;;;;;;5114440;28;20046;-71
2023/03/14 06:45:02;;;;;;;5.97;3.97;;;8.40;1.00;;;;;;5125146;28;20244;-71
2023/03/14 06:47:39;;;;;;;9.30;4.47;;;8.40;1.00;;;;;;5093208;29;20082;-71
2023/03/14 06:50:13;;;;;;;9.23;4.75;;;8.40;1.00;;;;;;5121406;28;20053;-72
2023/03/14 06:52:47;;;;;;;11.07;4.13;;;8.60;1.00;;;;;;5131989;28;20069;-73
2023/03/14 06:55:20;;;;;;;11.63;4.50;;;8.70;1.00;;;;;;5113194;28;20031;-72
2023/03/14 06:57:52;;;;;;;10.23;4.78;;;8.80;1.00;;;;;;5128417;28;20034;-68
2023/03/14 07:00:27;;;;;;;12.63;5.30;;;8.90;1.00;;;;;;5097412;28;20034;-71
2023/03/14 07:02:58;;;;;;;8.73;4.70;;;9.00;1.00;;;;;;5114138;28;20046;-71
2023/03/14 07:05:30;;;;;;;7.13;4.10;;;9.10;1.00;;;;;;5102557;28;20098;-70
2023/03/14 07:08:17;;;;;;;5.25;3.95;;;9.30;1.00;;;;;;5097225;28;20496;-72
2023/03/14 07:11:02;;;;;;;5.60;3.78;;;9.40;1.00;;;;;;5113319;28;20051;-70
2023/03/14 07:13:39;;;;;;;5.32;3.50;;;9.50;1.00;;;;;;5098211;28;20050;-73
2023/03/14 07:16:15;;;;;;;5.50;3.67;;;9.50;1.00;;;;;;5128545;28;20372;-68
2023/03/14 07:18:49;;;;;;;3.15;2.40;;;9.50;1.00;;;;;;5116206;28;20034;-71
2023/03/14 07:21:23;;;;;;;5.82;3.13;;;9.70;1.00;;;;;;5116276;28;20045;-71
2023/03/14 07:23:55;;;;;;;2.45;1.70;;;10.00;1.00;;;;;;5118926;28;20038;-70
2023/03/14 07:26:26;;;;;;;4.90;2.58;;;10.60;1.00;;;;;;5100178;28;20365;-72
2023/03/14 07:28:58;;;;;;;1.15;0.90;;;11.00;1.00;;;;;;5129832;28;20122;-72
2023/03/14 07:31:29;;;;;;;1.05;0.95;;;11.70;1.00;;;;;;5112987;28;20042;-71
2023/03/14 07:34:01;;;;;;;1.05;1.05;;;12.20;1.00;;;;;;5113600;28;20031;-72
2023/03/14 07:36:32;;;;;;;1.00;1.00;;;12.60;1.00;;;;;;5106682;28;20478;-72
2023/03/14 07:39:04;;;;;;;1.02;0.98;;;12.90;1.00;;;;;;5112795;28;20390;-72
2023/03/14 07:41:40;;;;;;;0.70;0.70;;;13.20;1.00;;;;;;5131104;28;20357;-71
2023/03/14 07:44:12;;;;;;;0.93;0.93;;;13.20;1.00;;;;;;5098492;28;20047;-71
2023/03/14 07:46:43;;;;;;;7.03;2.88;;;13.40;1.00;;;;;;5122254;28;20259;-71
2023/03/14 07:49:15;;;;;;;4.13;2.88;;;13.30;1.00;;;;;;5098960;28;20377;-72
2023/03/14 07:51:51;;;;;;;5.63;2.78;;;12.80;1.00;;;;;;5115795;28;20034;-71
2023/03/14 07:54:24;;;;;;;0.85;0.82;;;12.50;1.00;;;;;;5130318;28;20038;-73
2023/03/14 07:57:00;;;;;;;4.07;1.80;;;12.70;1.00;;;;;;5106304;28;20220;-70
2023/03/14 07:59:35;;;;;;;3.65;1.25;;;12.80;1.00;;;;;;5105450;28;20377;-71
2023/03/14 08:02:12;;;;;;;1.63;1.52;;;13.00;1.00;;;;;;5101790;28;20050;-73
2023/03/14 08:04:44;;;;;;;0.88;0.65;;;13.10;1.00;;;;;;5096449;28;20407;-70
2023/03/14 08:07:15;;;;;;;0.90;0.90;;;13.10;1.00;;;;;;5113328;28;20050;-69
2023/03/14 08:09:50;;;;;;;4.13;0.75;;;13.20;1.00;;;;;;5098918;28;20086;-72
2023/03/14 08:12:24;;;;;;;;;;;13.30;1.00;;;;;;5130773;28;20310;-68
2023/03/14 08:14:55;;;;;;;1.25;0.60;;;13.30;1.00;;;;;;5114469;28;19917;-71
2023/03/14 08:17:32;;;;;;;0.80;0.80;;;13.30;1.00;;;;;;5128116;28;20407;-72
2023/03/14 08:20:08;;;;;;;0.75;0.75;;;13.30;1.00;;;;;;5099130;28;20257;-71
2023/03/14 08:22:39;;;;;;;0.60;0.60;;;13.20;1.00;;;;;;5114693;28;20191;-74
2023/03/14 08:25:14;;;;;;;0.70;0.70;;;13.20;1.00;;;;;;5138799;28;20243;-71
2023/03/14 08:27:45;;;;;;;0.75;0.75;;;13.20;1.00;;;;;;5107915;28;20098;-70
2023/03/14 08:30:21;;;;;;;3.25;1.77;;;13.30;1.00;;;;;;5112561;28;20377;-74
2023/03/14 08:33:00;;;;;;;3.67;2.28;;;13.30;1.00;;;;;;5125546;28;20039;-72
2023/03/14 08:35:37;;;;;;;4.50;2.45;;;13.10;1.00;;;;;;5082739;29;20039;-72
2023/03/14 08:38:11;;;;;;;1.23;1.15;;;12.80;1.00;;;;;;5109253;29;20394;-69
2023/03/14 08:40:43;;;;;;;2.65;1.70;;;12.60;1.00;;;;;;5094583;29;20042;-68
2023/03/14 08:43:16;;;;;;;1.15;1.05;;;12.60;1.00;;;;;;5112166;29;20562;-71
2023/03/14 08:45:52;;;;;;;2.75;1.92;;;12.70;1.00;;;;;;5109321;28;20104;-72
2023/03/14 08:48:26;;;;;;;4.07;2.53;;;12.70;1.00;;;;;;5096227;28;20047;-69
2023/03/14 08:51:10;;;;;;;0.88;0.85;;;12.70;1.00;;;;;;5117023;28;20180;-70
2023/03/14 08:53:42;;;;;;;1.00;1.00;;;12.80;1.00;;;;;;5133430;28;20035;-70
2023/03/14 08:56:13;;;;;;;0.70;0.70;;;13.10;1.00;;;;;;5128732;28;20058;-72
2023/03/14 08:58:45;;;;;;;0.63;0.63;;;13.20;1.00;;;;;;5100961;28;20286;-72
2023/03/14 09:01:18;;;;;;;0.80;0.80;;;13.30;1.00;;;;;;5114458;28;20045;-71
2023/03/14 09:03:50;;;;;;;0.70;0.70;;;13.40;1.00;;;;;;5116357;28;20043;-72
2023/03/14 09:06:22;;;;;;;0.75;0.75;;;13.50;1.00;;;;;;5105170;28;20347;-73
2023/03/14 09:08:56;;;;;;;0.70;0.70;;;13.60;1.00;;;;;;5113271;29;20316;-73
2023/03/14 09:11:28;;;;;;;0.95;0.90;;;13.60;1.00;;;;;;5096666;29;20043;-71
2023/03/14 09:14:01;;;;;;;0.70;0.70;;;13.70;1.00;;;;;;5096878;29;20038;-70
2023/03/14 09:16:33;;;;;;;0.88;0.88;;;13.70;1.00;;;;;;5111947;28;20068;-68
2023/03/14 09:19:07;;;;;;;0.70;0.70;;;13.80;1.00;;;;;;5115701;28;20035;-70
2023/03/14 09:21:39;;;;;;;1.13;1.02;;;13.80;1.00;;;;;;5116603;28;20314;-71
2023/03/14 09:24:10;;;;;;;9.00;1.27;;;13.80;1.00;;;;;;5134609;28;20054;-69
2023/03/14 09:26:42;;;;;;;1.27;1.17;;;13.80;1.00;;;;;;5133388;28;20366;-72
2023/03/14 09:29:13;;;;;;;2.38;1.00;;;13.80;1.00;;;;;;5116887;28;20057;-71
2023/03/14 09:31:44;;;;;;;1.40;1.30;;;13.70;1.00;;;;;;5129955;28;20278;-71
2023/03/14 09:34:19;;;;;;;1.30;1.20;;;13.70;99.90;;;;;;5129876;28;20061;-71
2023/03/14 09:36:50;;;;;;;0.90;0.90;;;13.60;1.00;;;;;;5097905;29;20417;-69
2023/03/14 09:39:22;;;;;;;0.80;0.80;;;13.50;1.00;;;;;;5128873;28;20213;-68
2023/03/14 09:41:58;;;;;;;3.78;1.05;;;13.50;1.00;;;;;;5111811;28;20119;-71
2023/03/14 09:44:38;;;;;;;1.42;0.90;;;13.40;1.00;;;;;;5117074;28;20027;-70
2023/03/14 09:47:13;;;;;;;1.65;0.93;;;13.40;1.00;;;;;;5109188;28;20046;-71
2023/03/14 09:49:45;;;;;;;1.10;1.00;;;13.40;1.00;;;;;;5100929;28;20050;-70
2023/03/14 09:52:22;;;;;;;1.05;1.00;;;13.40;1.00;;;;;;5103270;28;20057;-69
2023/03/14 09:55:01;;;;;;;1.25;0.90;;;13.50;99.90;;;;;;5114432;28;20338;-70
2023/03/14 09:57:36;;;;;;;0.80;0.80;;;13.50;1.00;;;;;;5131180;28;20043;-72
2023/03/14 10:00:22;;;;;;;1.02;0.80;;;13.60;99.90;;;;;;5096904;28;20186;-69
2023/03/14 10:03:21;;;;;;;2.65;2.00;;;13.80;99.90;;;;;;5124462;28;20401;-74
2023/03/14 10:05:55;;;;;;;4.35;2.42;;;13.90;99.90;;;;;;5102708;28;20085;-71
2023/03/14 10:08:26;;;;;;;4.05;2.05;;;13.90;99.90;;;;;;5115788;28;20126;-71
2023/03/14 10:11:02;;;;;;;3.67;2.55;;;14.00;1.00;;;;;;5128458;28;20051;-73
2023/03/14 10:13:33;;;;;;;3.38;2.30;;;13.90;1.00;;;;;;5079903;29;20505;-71
2023/03/14 10:16:09;;;;;;;4.07;2.42;;;14.10;1.00;;;;;;5109332;28;20039;-70
2023/03/14 10:18:46;;;;;;;2.13;1.92;;;14.30;1.00;;;;;;5127665;28;20043;-73
2023/03/14 10:21:30;;;;;;;3.08;2.78;;;14.10;1.00;;;;;;5114865;28;20034;-74
2023/03/14 10:24:26;;;;;;;3.13;1.90;;;13.90;1.00;;;;;;5117603;28;20069;-70
2023/03/14 10:27:09;;;;;;;3.15;2.17;;;13.80;1.00;;;;;;5108349;28;20045;-72
2023/03/14 10:30:00;;;;;;;2.53;2.00;;;13.80;1.00;;;;;;5116231;28;20054;-73
2023/03/14 10:32:45;;;;;;;1.17;0.98;;;13.80;99.90;;;;;;5126026;28;20073;-72
2023/03/14 10:35:20;;;;;;;3.08;0.90;;;14.00;99.90;;;;;;5097355;28;20338;-73
2023/03/14 10:38:02;;;;;;;;;;;14.00;99.90;;;;;;5126345;28;20046;-70
2023/03/14 10:40:41;;;;;;;0.80;0.80;;;14.00;99.90;;;;;;5117574;28;20051;-69
2023/03/14 10:43:21;;;;;;;1.02;0.90;;;13.90;99.90;;;;;;5098053;28;20042;-69
2023/03/14 10:46:16;;;;;;;0.98;0.98;;;13.70;99.90;;;;;;5125455;28;20031;-69
2023/03/14 10:48:49;;;;;;;1.00;1.00;;;13.30;99.90;;;;;;5113716;28;20043;-72
2023/03/14 10:51:28;;;;;;;1.00;1.00;;;13.00;99.90;;;;;;5117472;28;20204;-72
2023/03/14 10:54:12;;;;;;;3.05;1.10;;;12.90;99.90;;;;;;5115030;28;20049;-71
2023/03/14 10:56:43;;;;;;;1.60;1.50;;;12.70;37.40;;;;;;5111217;28;20051;-73
2023/03/14 10:59:15;;;;;;;2.88;0.93;;;12.70;1.00;;;;;;5111845;29;20039;-71
2023/03/14 11:01:47;;;;;;;0.75;0.75;;;12.80;1.00;;;;;;5115748;28;20038;-72
2023/03/14 11:04:52;;;;;;;0.80;0.80;;;12.70;11.70;;;;;;5122764;28;20049;-71
2023/03/14 11:07:39;;;;;;;0.85;0.80;;;12.50;1.00;;;;;;5118838;28;20043;-71
2023/03/14 11:10:35;;;;;;;1.33;0.80;;;12.20;1.00;;;;;;5099035;28;20050;-69
2023/03/14 11:14:01;;;;;;;0.95;0.75;;;12.20;1.00;;;;;;5099832;28;20182;-66
2023/03/14 11:16:54;;;;;;;0.70;0.70;;;12.30;1.00;;;;;;5086550;29;20043;-72
2023/03/14 11:19:46;;;;;;;0.80;0.80;;;12.50;1.00;;;;;;5073227;29;20674;-72
2023/03/14 11:22:43;;;;;;;1.55;1.15;;;12.50;1.00;;;;;;5074912;29;20048;-70
2023/03/14 11:25:33;;;;;;;1.00;0.90;;;12.60;1.00;;;;;;5068025;29;20075;-73
2023/03/14 11:28:23;;;;;;;1.10;0.60;;;12.60;1.00;;;;;;5038450;29;20230;-67
2023/03/14 11:31:27;;;;;;;0.70;0.70;;;12.50;1.00;;;;;;5052020;29;20048;-72
2023/03/14 11:34:40;;;;;;;1.00;1.00;;;12.50;1.00;;;;;;5073023;29;20050;-70
2023/03/14 11:37:29;;;;;;;0.80;0.80;;;12.50;1.00;;;;;;5059118;29;20045;-72
2023/03/14 11:40:24;;;;;;;0.70;0.70;;;12.40;1.00;;;;;;5074355;29;20043;-69
2023/03/14 11:43:06;;;;;;;1.48;0.90;;;12.40;1.00;;;;;;5074308;28;20401;-70
2023/03/14 11:45:43;;;;;;;1.65;0.77;;;12.30;1.00;;;;;;5071898;29;20050;-71
2023/03/14 11:48:20;;;;;;;2.30;1.25;;;12.20;1.00;;;;;;5055225;29;20055;-70
2023/03/14 11:50:57;;;;;;;1.10;0.88;;;12.20;1.00;;;;;;5096373;28;20042;-69
2023/03/14 11:53:59;;;;;;;0.80;0.80;;;12.10;1.00;;;;;;5131671;28;20365;-71
2023/03/14 11:56:48;;;;;;;1.00;1.00;;;12.10;1.00;;;;;;5132807;28;20035;-70
2023/03/14 11:59:39;;;;;;;0.93;0.75;;;12.00;1.00;;;;;;5099417;28;20608;-71
2023/03/14 12:02:40;;;;;;;0.80;0.70;;;11.90;1.00;;;;;;5129626;28;20038;-72
2023/03/14 12:05:31;;;;;;;0.73;0.73;;;11.80;1.00;;;;;;5110103;28;20430;-71
2023/03/14 12:08:10;;;;;;;1.05;0.80;;;11.80;1.00;;;;;;5137279;28;20030;-71
2023/03/14 12:11:11;;;;;;;0.80;0.80;;;11.80;99.90;;;;;;5131721;28;20287;-71
2023/03/14 12:13:49;;;;;;;1.58;0.77;;;11.80;99.90;;;;;;5131571;28;20137;-70
2023/03/14 12:16:24;;;;;;;0.80;0.80;;;11.90;99.90;;;;;;5128963;28;20038;-70
2023/03/14 12:19:13;;;;;;;0.80;0.80;;;11.90;99.90;;;;;;5145979;28;20057;-69
2023/03/14 12:21:58;;;;;;;0.68;0.68;;;11.80;1.00;;;;;;5118213;28;20038;-69
2023/03/14 12:24:33;;;;;;;1.20;1.02;;;11.70;99.90;;;;;;5118830;28;20375;-72
2023/03/14 12:27:13;;;;;;;0.80;0.80;;;11.80;99.90;;;;;;5102193;28;20052;-69
2023/03/14 12:30:03;;;;;;;0.60;0.60;;;11.70;99.90;;;;;;5134010;28;20045;-71
2023/03/14 12:32:38;;;;;;;0.82;0.82;;;11.60;99.90;;;;;;5118623;28;20245;-73
2023/03/14 12:35:39;;;;;;;0.88;0.80;;;11.60;1.00;;;;;;5118223;28;20047;-69
2023/03/14 12:38:53;;;;;;;1.70;0.90;;;11.60;1.00;;;;;;5136283;28;20035;-69
2023/03/14 12:41:38;;;;;;;0.60;0.60;;;11.60;99.90;;;;;;5135347;28;20034;-72
2023/03/14 12:44:31;;;;;;;0.88;0.88;;;11.60;99.90;;;;;;5134666;28;20380;-72
2023/03/14 12:47:18;;;;;;;0.88;0.73;;;11.60;99.90;;;;;;5147969;28;20034;-70
2023/03/14 12:49:57;;;;;;;1.13;0.70;;;11.70;99.90;;;;;;5121902;28;20263;-69
2023/03/14 12:52:51;;;;;;;1.15;1.13;;;11.80;99.90;;;;;;5115498;28;20051;-68
2023/03/14 12:55:36;;;;;;;1.95;0.80;;;11.90;99.90;;;;;;5116857;28;20235;-70
2023/03/14 12:58:35;;;;;;;0.60;0.60;;;12.00;99.90;;;;;;5119968;28;20050;-72
2023/03/14 13:01:18;;;;;;;1.55;0.70;;;12.00;99.90;;;;;;5099620;28;20059;-71
2023/03/14 13:03:58;;;;;;;0.70;0.70;;;12.00;99.90;;;;;;5118030;28;20034;-72
2023/03/14 13:06:53;;;;;;;1.30;0.85;;;11.90;99.90;;;;;;5108675;28;20544;-68
2023/03/14 13:09:29;;;;;;;6.70;3.50;;;11.70;99.90;;;;;;5129810;28;20538;-72
2023/03/14 13:12:16;;;;;;;2.42;1.58;;;11.70;99.90;;;;;;5114427;28;20058;-72
2023/03/14 13:14:53;;;;;;;1.98;1.30;;;11.70;99.90;;;;;;5129983;28;20437;-69
2023/03/14 13:17:31;;;;;;;1.20;1.10;;;11.70;99.90;;;;;;5095479;29;20051;-72
2023/03/14 13:20:21;;;;;;;1.05;0.93;;;11.60;99.90;;;;;;5113586;29;20161;-71
2023/03/14 13:22:54;;;;;;;1.05;0.90;;;11.60;99.90;;;;;;5129154;28;20365;-71
2023/03/14 13:25:35;;;;;;;1.08;0.98;;;11.50;99.90;;;;;;5098783;29;20038;-72
2023/03/14 13:28:13;;;;;;;0.75;0.75;;;11.50;99.90;;;;;;5113933;28;20035;-68
2023/03/14 13:31:00;;;;;;;0.70;0.70;;;11.40;99.90;;;;;;5097818;28;20066;-71
2023/03/14 13:33:35;;;;;;;0.80;0.80;;;11.40;99.90;;;;;;5128049;28;20051;-72
2023/03/14 13:36:09;;;;;;;0.73;0.73;;;11.30;99.90;;;;;;5116559;28;20059;-71
2023/03/14 13:38:43;;;;;;;1.00;1.00;;;11.40;99.90;;;;;;5102361;29;20047;-70
2023/03/14 13:41:15;;;;;;;1.45;1.13;;;11.40;99.90;;;;;;5101568;28;20037;-72
2023/03/14 13:43:48;;;;;;;1.10;1.10;;;11.40;99.90;;;;;;5133458;28;20056;-73
2023/03/14 13:46:25;;;;;;;0.70;0.70;;;11.40;99.90;;;;;;5131543;28;20037;-71
2023/03/14 13:49:05;;;;;;;0.60;0.60;;;11.40;1.00;;;;;;5133786;28;20046;-72
2023/03/14 13:51:41;;;;;;;1.63;0.65;;;11.30;99.90;;;;;;5101721;28;20049;-72
2023/03/14 13:54:22;;;;;;;0.70;0.70;;;11.30;99.90;;;;;;5134143;28;20037;-70